Time;durP1;ratioP1;P1;durP2;ratioP2;P2;SDS_P1;SDS_P2;PMS_P1;PMS_P2;Temp;Humidity;BMP_temperature;BMP_pressure;BME280_temperature;BME280_humidity;BME280_pressure;Samples;Min_cycle;Max_cycle;Signal;HPM_P1;HPM_P2
2023/06/25 00:02:09;;;;;;;;;14.00;13.00;;;;;19.37;100.00;99212.28;6056339;28;97400;-66
2023/06/25 00:05:14;;;;;;;;;15.00;14.75;;;;;19.24;100.00;99207.34;6072854;28;97536;-66
2023/06/25 00:08:17;;;;;;;;;13.80;13.00;;;;;19.19;100.00;99212.81;6079303;28;96545;-66
2023/06/25 00:11:21;;;;;;;;;16.00;14.00;;;;;19.21;100.00;99216.06;6065939;28;96387;-66
2023/06/25 00:14:24;;;;;;;;;18.00;15.00;;;;;19.17;100.00;99220.44;6065949;28;96350;-66
2023/06/25 00:17:28;;;;;;;;;16.00;15.00;;;;;19.16;100.00;99219.59;6066076;28;97242;-66
2023/06/25 00:20:33;;;;;;;;;16.80;15.40;;;;;19.11;100.00;99205.13;6049013;28;96528;-66
2023/06/25 00:23:37;;;;;;;;;17.25;15.00;;;;;19.08;100.00;99214.69;6064992;28;96722;-66
2023/06/25 00:26:45;;;;;;;;;17.40;15.60;;;;;19.07;100.00;99212.19;6065059;28;96486;-66
2023/06/25 00:29:48;;;;;;;;;20.40;17.40;;;;;18.98;100.00;99203.72;6032773;28;96661;-67
2023/06/25 00:32:54;;;;;;;;;17.50;15.50;;;;;18.94;100.00;99202.63;6032996;28;96664;-66
2023/06/25 00:36:07;;;;;;;;;14.00;13.33;;;;;18.99;100.00;99202.63;6048717;28;97189;-66
2023/06/25 00:39:11;;;;;;;;;15.00;14.00;;;;;19.03;100.00;99201.00;6032704;28;96689;-66
2023/06/25 00:42:15;;;;;;;;;19.80;17.00;;;;;18.98;100.00;99203.72;6065486;28;96674;-66
2023/06/25 00:45:19;;;;;;;;;18.00;15.60;;;;;18.94;100.00;99197.97;6047759;28;97654;-66
2023/06/25 00:48:22;;;;;;;;;17.20;16.00;;;;;18.91;100.00;99193.03;6047807;28;96917;-66
2023/06/25 00:51:28;;;;;;;;;20.00;16.00;;;;;18.84;100.00;99200.66;6050418;28;98512;-66
2023/06/25 00:54:31;;;;;;;;;16.00;14.00;;;;;18.82;100.00;99196.53;6052444;28;96891;-66
2023/06/25 00:57:34;;;;;;;;;18.60;18.00;;;;;18.78;100.00;99199.00;6069240;28;96546;-66
2023/06/25 01:00:39;;;;;;;;;16.00;14.50;;;;;18.85;100.00;99199.59;6069315;28;97544;-66
2023/06/25 01:03:47;;;;;;;;;19.00;17.00;;;;;18.86;100.00;99201.22;6069685;28;96441;-66
2023/06/25 01:06:56;;;;;;;;;17.60;16.00;;;;;18.77;100.00;99205.53;6069345;28;96319;-66
2023/06/25 01:10:00;;;;;;;;;18.00;17.00;;;;;18.62;100.00;99197.28;6066415;28;97224;-67
2023/06/25 01:13:03;;;;;;;;;18.80;16.20;;;;;18.64;100.00;99202.50;6067207;28;97173;-66
2023/06/25 01:16:07;;;;;;;;;21.40;19.00;;;;;18.64;100.00;99197.03;6066991;28;96569;-66
2023/06/25 01:19:12;;;;;;;;;19.67;16.00;;;;;18.55;100.00;99186.63;6065704;28;97143;-66
2023/06/25 01:22:17;;;;;;;;;19.40;18.40;;;;;18.53;100.00;99190.66;6065583;28;96538;-66
2023/06/25 01:25:22;;;;;;;;;19.00;16.40;;;;;18.56;100.00;99187.44;6068448;28;96602;-66
2023/06/25 01:28:25;;;;;;;;;14.80;14.00;;;;;18.43;100.00;99160.59;6068814;28;96268;-66
2023/06/25 01:31:30;;;;;;;;;16.00;15.60;;;;;18.62;100.00;99185.56;6063801;28;96743;-66
2023/06/25 01:34:35;;;;;;;;;16.20;13.00;;;;;18.64;100.00;99180.66;6051616;28;96764;-66
2023/06/25 01:37:38;;;;;;;;;18.00;17.00;;;;;18.59;100.00;99178.72;6051544;28;98099;-66
2023/06/25 01:40:43;;;;;;;;;16.80;15.80;;;;;18.62;100.00;99180.09;6051585;28;96704;-66
2023/06/25 01:43:47;;;;;;;;;19.00;18.00;;;;;18.54;100.00;99171.31;6068456;28;96525;-66
2023/06/25 01:46:50;;;;;;;;;15.80;15.80;;;;;18.58;100.00;99177.06;6051527;28;97005;-66
2023/06/25 01:49:54;;;;;;;;;17.00;15.00;;;;;18.62;100.00;99169.19;6051850;28;96573;-66
2023/06/25 01:52:57;;;;;;;;;16.33;13.67;;;;;18.66;100.00;99168.38;6068778;28;96363;-66
2023/06/25 01:56:02;;;;;;;;;16.00;15.60;;;;;18.65;100.00;99169.47;6051379;28;96487;-66
2023/06/25 01:59:05;;;;;;;;;20.00;18.00;;;;;18.48;100.00;99161.44;6051105;28;96454;-66
2023/06/25 02:02:09;;;;;;;;;16.00;15.00;;;;;18.50;100.00;99174.81;6050142;28;96548;-66
2023/06/25 02:05:12;;;;;;;;;17.00;16.00;;;;;18.52;100.00;99173.47;6050213;28;97153;-66
2023/06/25 02:08:15;;;;;;;;;14.50;13.00;;;;;18.52;100.00;99168.00;6051039;28;96497;-66
2023/06/25 02:11:20;;;;;;;;;16.00;15.20;;;;;18.59;100.00;99165.06;6050930;28;96510;-66
2023/06/25 02:14:23;;;;;;;;;17.20;15.00;;;;;18.57;100.00;99154.41;6050278;28;99053;-66
2023/06/25 02:17:27;;;;;;;;;17.00;15.00;;;;;18.53;100.00;99153.28;6050812;28;96505;-64
2023/06/25 02:20:30;;;;;;;;;17.00;14.60;;;;;18.57;100.00;99154.41;6067973;28;97092;-66
2023/06/25 02:23:34;;;;;;;;;16.00;14.00;;;;;18.50;100.00;99152.97;6066971;28;96465;-66
2023/06/25 02:26:39;;;;;;;;;15.00;14.40;;;;;18.50;100.00;99161.19;6035049;28;96694;-66
2023/06/25 02:29:45;;;;;;;;;17.50;16.50;;;;;18.39;100.00;99143.09;6050930;28;96930;-66
2023/06/25 02:32:48;;;;;;;;;11.50;11.50;;;;;18.53;100.00;99163.34;6050714;28;96260;-66
2023/06/25 02:35:52;;;;;;;;;17.00;15.00;;;;;18.49;100.00;99151.34;6050994;28;96605;-66
2023/06/25 02:38:55;;;;;;;;;12.80;12.00;;;;;18.54;100.00;99159.56;6067697;28;96586;-67
2023/06/25 02:42:00;;;;;;;;;19.00;16.00;;;;;18.56;100.00;99163.69;6034416;28;98399;-67
2023/06/25 02:45:04;;;;;;;;;15.80;14.00;;;;;18.50;100.00;99156.53;6049570;28;96700;-67
2023/06/25 02:48:07;;;;;;;;;18.50;15.00;;;;;18.49;100.00;99157.63;6049168;28;96886;-66
2023/06/25 02:51:11;;;;;;;;;16.00;14.50;;;;;18.44;100.00;99164.97;6049444;28;96497;-66
2023/06/25 02:54:14;;;;;;;;;18.40;15.40;;;;;18.46;100.00;99158.16;6049247;28;97155;-67
2023/06/25 02:57:19;;;;;;;;;17.00;15.60;;;;;18.45;100.00;99166.59;6050657;28;96365;-67
2023/06/25 03:00:22;;;;;;;;;16.25;15.25;;;;;18.49;100.00;99170.44;6049520;28;96301;-66
2023/06/25 03:03:26;;;;;;;;;15.00;14.00;;;;;18.50;100.00;99166.63;6049071;28;96678;-66
2023/06/25 03:06:29;;;;;;;;;15.40;14.40;;;;;18.49;100.00;99164.97;6047403;28;96600;-66
2023/06/25 03:09:33;;;;;;;;;14.00;12.00;;;;;18.48;100.00;99161.44;6047194;28;96481;-66
2023/06/25 03:12:39;;;;;;;;;15.00;13.20;;;;;18.59;100.00;99162.34;6059890;28;97142;-66
2023/06/25 03:15:42;;;;;;;;;18.00;15.00;;;;;18.58;100.00;99163.41;6064360;28;96975;-66
2023/06/25 03:18:45;;;;;;;;;13.80;12.80;;;;;18.62;100.00;99161.00;6047978;28;96800;-66
2023/06/25 03:21:49;;;;;;;;;15.25;14.50;;;;;18.62;100.00;99156.31;6049003;28;96603;-66
2023/06/25 03:24:53;;;;;;;;;13.60;13.00;;;;;18.60;100.00;99167.53;6031650;28;96998;-66
2023/06/25 03:27:58;;;;;;;;;15.00;14.00;;;;;18.70;100.00;99165.94;6032774;28;99804;-66
2023/06/25 03:31:03;;;;;;;;;18.00;15.00;;;;;18.76;100.00;99156.66;6049612;28;96503;-66
2023/06/25 03:34:16;;;;;;;;;17.40;16.00;;;;;18.78;100.00;99159.94;6031729;28;97144;-66
2023/06/25 03:37:20;;;;;;;;;14.00;11.00;;;;;18.83;100.00;99155.31;6032930;28;98978;-66
2023/06/25 03:40:24;;;;;;;;;15.20;13.00;;;;;18.88;100.00;99154.50;6065096;28;97055;-66
2023/06/25 03:43:28;;;;;;;;;13.00;12.40;;;;;18.87;100.00;99155.59;6048658;28;96455;-64
2023/06/25 03:46:32;;;;;;;;;13.20;12.80;;;;;18.95;100.00;99158.63;6065877;28;97935;-66
2023/06/25 03:49:35;;;;;;;;;17.00;15.00;;;;;19.03;100.00;99163.56;6048764;28;96480;-66
2023/06/25 03:52:39;;;;;;;;;16.40;16.00;;;;;19.06;100.00;99158.66;6045676;28;96650;-65
2023/06/25 03:55:43;;;;;;;;;12.20;11.00;;;;;19.01;100.00;99156.72;6044959;28;98583;-66
2023/06/25 03:58:47;;;;;;;;;15.00;14.00;;;;;19.00;100.00;99160.56;6061575;28;96691;-66
2023/06/25 04:01:51;;;;;;;;;15.60;14.20;;;;;18.98;100.00;99160.81;6062818;28;96776;-66
2023/06/25 04:04:54;;;;;;;;;12.20;12.20;;;;;19.01;100.00;99160.28;6063165;28;96855;-66
2023/06/25 04:07:57;;;;;;;;;13.00;12.00;;;;;19.10;100.00;99157.84;6064518;28;96620;-66
2023/06/25 04:11:01;;;;;;;;;16.00;14.00;;;;;19.07;100.00;99160.28;6032648;28;98367;-66
2023/06/25 04:14:06;;;;;;;;;13.80;13.80;;;;;19.14;100.00;99148.00;6064321;28;97488;-66
2023/06/25 04:17:10;;;;;;;;;16.00;15.00;;;;;19.24;100.00;99158.13;6048703;28;97131;-66
2023/06/25 04:20:13;;;;;;;;;15.20;13.20;;;;;19.30;100.00;99154.34;6048300;28;96953;-66
2023/06/25 04:23:18;;;;;;;;;15.00;13.75;;;;;19.31;100.00;99147.75;6048382;28;98635;-66
2023/06/25 04:26:21;;;;;;;;;12.20;11.20;;;;;19.33;100.00;99145.56;6052249;28;96562;-66
2023/06/25 04:29:26;;;;;;;;;11.60;10.20;;;;;19.37;100.00;99149.41;6051564;28;97939;-66
2023/06/25 04:32:32;;;;;;;;;13.80;13.00;;;;;19.43;100.00;99142.84;6051534;28;97344;-66
2023/06/25 04:35:37;;;;;;;;;10.60;10.00;;;;;19.46;100.00;99145.06;6052092;28;96768;-66
2023/06/25 04:38:41;;;;;;;;;13.60;12.00;;;;;19.59;100.00;99154.66;6052416;28;96639;-66
2023/06/25 04:41:45;;;;;;;;;14.60;13.60;;;;;19.65;100.00;99140.69;6052203;28;96589;-66
2023/06/25 04:44:50;;;;;;;;;14.25;12.25;;;;;19.61;100.00;99141.50;6051888;28;96599;-66
2023/06/25 04:47:54;;;;;;;;;13.00;13.00;;;;;19.73;100.00;99147.53;6067809;28;97213;-66
2023/06/25 04:50:57;;;;;;;;;17.00;14.25;;;;;19.80;100.00;99137.09;6051426;28;98085;-66
2023/06/25 04:54:01;;;;;;;;;14.00;13.00;;;;;19.90;100.00;99134.34;6067204;28;96604;-66
2023/06/25 04:57:05;;;;;;;;;13.00;12.00;;;;;19.80;100.00;99116.03;6068846;28;97650;-66
2023/06/25 05:00:11;;;;;;;;;9.00;8.00;;;;;20.01;100.00;99130.50;6068973;28;96453;-66
2023/06/25 05:03:14;;;;;;;;;12.50;11.25;;;;;20.12;100.00;99117.63;6067210;28;96650;-66
2023/06/25 05:06:18;;;;;;;;;14.40;12.40;;;;;20.09;100.00;99127.19;6048679;28;98163;-66
2023/06/25 05:09:21;;;;;;;;;11.00;11.00;;;;;20.17;100.00;99128.56;6066139;28;98403;-66
2023/06/25 05:12:25;;;;;;;;;9.20;9.20;;;;;20.34;100.00;99134.53;6032976;28;98387;-66
2023/06/25 05:15:29;;;;;;;;;14.00;13.00;;;;;20.49;100.00;99125.44;6066103;28;97398;-66
2023/06/25 05:18:33;;;;;;;;;12.00;9.00;;;;;20.64;100.00;99125.38;6067864;28;96479;-66
2023/06/25 05:21:36;;;;;;;;;12.00;11.00;;;;;20.76;100.00;99128.63;6051538;28;96349;-66
2023/06/25 05:24:39;;;;;;;;;13.00;13.00;;;;;20.85;100.00;99126.09;6068057;28;96391;-66
2023/06/25 05:27:43;;;;;;;;;12.40;12.40;;;;;20.74;100.00;99117.94;6050294;28;96684;-66
2023/06/25 05:30:47;;;;;;;;;13.00;11.60;;;;;20.87;100.00;99126.63;6068388;28;96519;-66
2023/06/25 05:33:51;;;;;;;;;13.00;12.00;;;;;20.94;100.00;99127.16;6068225;28;96400;-66
2023/06/25 05:36:54;;;;;;;;;17.33;12.33;;;;;20.87;100.00;99126.63;6067694;28;96370;-66
2023/06/25 05:39:57;;;;;;;;;15.00;14.00;;;;;20.91;100.00;99127.72;6068154;28;97178;-67
2023/06/25 05:43:01;;;;;;;;;14.00;13.00;;;;;21.02;100.00;99130.09;6051479;28;98913;-66
2023/06/25 05:46:05;;;;;;;;;14.40;12.20;;;;;21.06;100.00;99130.38;6067949;28;96549;-66
2023/06/25 05:49:10;;;;;;;;;19.00;16.00;;;;;21.26;100.00;99130.25;6068121;28;97518;-66
2023/06/25 05:52:14;;;;;;;;;16.25;14.50;;;;;21.30;100.00;99114.06;6050215;28;96975;-67
2023/06/25 05:55:17;;;;;;;;;16.40;15.00;;;;;21.49;100.00;99107.59;6068227;28;96790;-66
2023/06/25 05:58:20;;;;;;;;;14.25;13.75;;;;;21.66;100.00;99109.06;6068027;28;96265;-66
2023/06/25 06:01:25;;;;;;;;;15.20;14.20;;;;;21.80;100.00;99110.84;6067969;28;96937;-67
2023/06/25 06:04:29;;;;;;;;;21.00;18.40;;;;;21.96;100.00;99098.63;6067930;28;96389;-66
2023/06/25 06:07:33;;;;;;;;;19.40;18.00;;;;;21.88;100.00;99085.53;6050584;28;97504;-65
2023/06/25 06:10:36;;;;;;;;;19.00;16.00;;;;;22.11;100.00;99086.66;6067643;28;96472;-66
2023/06/25 06:13:39;;;;;;;;;15.40;14.00;;;;;22.30;100.00;99092.22;6050486;28;96788;-66
2023/06/25 06:16:44;;;;;;;;;16.00;14.20;;;;;22.48;100.00;99086.75;6050764;28;97056;-66
2023/06/25 06:19:48;;;;;;;;;17.20;14.20;;;;;22.68;100.00;99084.84;6067245;28;96579;-66
2023/06/25 06:22:51;;;;;;;;;16.20;15.20;;;;;22.66;100.00;99089.84;6067052;28;96718;-66
2023/06/25 06:25:54;;;;;;;;;16.25;15.50;;;;;22.73;100.00;99080.13;6067513;28;96307;-66
2023/06/25 06:29:03;;;;;;;;;16.40;15.00;;;;;22.64;100.00;99078.31;6067410;28;97256;-67
2023/06/25 06:32:09;;;;;;;;;19.00;17.00;;;;;22.74;100.00;99072.69;6050619;28;96489;-66
2023/06/25 06:35:13;;;;;;;;;19.00;16.00;;;;;22.67;100.00;99078.56;6067525;28;96859;-66
2023/06/25 06:38:16;;;;;;;;;17.40;16.00;;;;;22.75;100.00;99083.41;6067051;28;96572;-66
2023/06/25 06:41:20;;;;;;;;;17.50;15.50;;;;;22.97;100.00;99084.75;6050144;28;96699;-66
2023/06/25 06:44:23;;;;;;;;;17.00;15.00;;;;;23.08;100.00;99081.53;6049880;28;97174;-66
2023/06/25 06:47:28;;;;;;;;;19.00;17.20;;;;;23.22;100.00;99084.34;6065384;28;96461;-66
2023/06/25 06:50:31;;;;;;;;;19.00;16.00;;;;;23.39;100.00;99081.88;6067139;28;96969;-66
2023/06/25 06:53:35;;;;;;;;;17.00;15.20;;;;;23.54;100.00;99072.56;6064789;28;97238;-66
2023/06/25 06:56:38;;;;;;;;;18.00;15.60;;;;;23.61;100.00;99073.81;6067100;28;96530;-66
2023/06/25 06:59:42;;;;;;;;;16.00;15.50;;;;;23.75;99.57;99073.81;6067196;28;97552;-66
2023/06/25 07:02:46;;;;;;;;;14.00;14.00;;;;;23.96;100.00;99066.00;6049398;28;97887;-66
2023/06/25 07:05:50;;;;;;;;;15.00;13.40;;;;;24.15;97.95;99066.72;6065251;28;96728;-66
2023/06/25 07:08:53;;;;;;;;;16.75;15.00;;;;;24.39;96.86;99070.09;6064767;28;96957;-66
2023/06/25 07:11:57;;;;;;;;;18.25;16.00;;;;;24.47;94.66;99068.59;6047693;28;96943;-66
2023/06/25 07:15:00;;;;;;;;;16.80;15.80;;;;;24.39;93.35;99055.50;6047856;28;97423;-66
2023/06/25 07:18:06;;;;;;;;;15.00;14.00;;;;;24.45;90.61;99068.88;6064825;28;97014;-66
2023/06/25 07:21:09;;;;;;;;;15.00;13.60;;;;;24.49;90.90;99056.13;6066556;28;97604;-66
2023/06/25 07:24:13;;;;;;;;;16.40;15.40;;;;;24.65;90.16;99062.13;6065724;28;97476;-67
2023/06/25 07:27:16;;;;;;;;;19.25;17.00;;;;;24.81;89.24;99060.66;6048117;28;96506;-66
2023/06/25 07:30:20;;;;;;;;;15.00;14.00;;;;;25.02;91.23;99063.78;6065199;28;96718;-66
2023/06/25 07:33:24;;;;;;;;;12.00;11.00;;;;;25.41;92.29;99063.91;6066302;28;96400;-66
2023/06/25 07:36:28;;;;;;;;;17.00;14.50;;;;;25.50;88.95;99057.63;6048467;28;97004;-66
2023/06/25 07:39:33;;;;;;;;;15.50;14.50;;;;;25.56;88.58;99056.41;6049413;28;98602;-62
2023/06/25 07:42:36;;;;;;;;;16.00;14.50;;;;;25.79;87.78;99052.47;6066987;28;96430;-61
2023/06/25 07:45:40;;;;;;;;;18.00;15.40;;;;;25.93;85.99;99052.38;6066486;28;96609;-61
2023/06/25 07:48:45;;;;;;;;;17.00;15.00;;;;;26.00;84.65;99044.44;6048808;28;97459;-61
2023/06/25 07:51:50;;;;;;;;;15.00;13.00;;;;;26.28;85.71;99048.63;6065450;28;97096;-61
2023/06/25 07:54:54;;;;;;;;;15.00;13.00;;;;;26.34;82.65;99052.06;6076053;28;96728;-61
2023/06/25 07:57:57;;;;;;;;;13.80;12.00;;;;;26.59;81.67;99049.34;6090540;28;96300;-61
2023/06/25 08:01:01;;;;;;;;;16.00;15.00;;;;;26.66;79.03;99046.91;6094336;28;96366;-61
2023/06/25 08:04:06;;;;;;;;;17.00;16.00;;;;;26.96;80.27;99042.41;6094209;28;96423;-61
2023/06/25 08:07:10;;;;;;;;;16.00;15.00;;;;;27.17;78.30;99044.53;6094522;28;96932;-61
2023/06/25 08:10:13;;;;;;;;;17.25;16.00;;;;;27.37;78.95;99038.28;6094017;28;96434;-61
2023/06/25 08:13:17;;;;;;;;;13.20;13.20;;;;;27.67;77.64;99034.50;6094028;28;96320;-62
2023/06/25 08:16:20;;;;;;;;;15.00;13.00;;;;;27.63;76.06;99027.19;6094320;28;96398;-61
2023/06/25 08:19:25;;;;;;;;;14.40;13.00;;;;;27.81;75.74;99017.66;6093962;28;96667;-61
2023/06/25 08:22:28;;;;;;;;;16.00;14.40;;;;;27.81;75.80;99009.34;6093604;28;96262;-61
2023/06/25 08:25:32;;;;;;;;;15.00;15.00;;;;;28.01;76.70;99017.75;6094260;28;96880;-61
2023/06/25 08:28:35;;;;;;;;;18.00;16.00;;;;;28.39;75.05;99023.28;6093919;28;96347;-61
2023/06/25 08:31:38;;;;;;;;;14.60;13.60;;;;;28.49;72.31;99013.78;6093950;28;96279;-61
2023/06/25 08:34:43;;;;;;;;;14.00;13.00;;;;;28.75;74.25;99016.38;6094376;28;96559;-62
2023/06/25 08:37:47;;;;;;;;;13.60;12.20;;;;;28.78;72.99;99012.94;6093745;28;97671;-62
2023/06/25 08:40:55;;;;;;;;;15.00;13.20;;;;;29.15;70.07;99014.72;6093985;28;96804;-62
2023/06/25 08:43:59;;;;;;;;;17.00;16.00;;;;;29.50;70.30;99009.66;6093627;28;96621;-62
2023/06/25 08:47:06;;;;;;;;;13.60;13.60;;;;;29.79;68.90;99014.22;6074283;28;98924;-62
2023/06/25 08:50:11;;;;;;;;;14.40;14.40;;;;;30.01;65.74;99019.38;6074836;28;96490;-62
2023/06/25 08:53:14;;;;;;;;;18.00;15.00;;;;;30.14;65.79;99014.63;6067634;28;96523;-62
2023/06/25 08:56:19;;;;;;;;;15.60;14.60;;;;;30.36;66.32;99002.22;6069987;28;97023;-62
2023/06/25 08:59:22;;;;;;;;;13.00;12.75;;;;;30.70;66.35;99004.50;6069634;28;96369;-62
2023/06/25 09:02:28;;;;;;;;;15.00;15.00;;;;;30.94;61.48;98998.84;6069683;28;96601;-62
2023/06/25 09:05:33;;;;;;;;;16.00;15.00;;;;;30.95;59.04;99002.44;6050987;28;96597;-62
2023/06/25 09:08:41;;;;;;;;;17.00;16.00;;;;;30.80;61.23;99003.19;6067059;28;96476;-62
2023/06/25 09:11:44;;;;;;;;;13.00;12.00;;;;;30.72;55.32;99007.75;6049583;28;96434;-62
2023/06/25 09:14:47;;;;;;;;;11.60;11.00;;;;;30.79;55.18;98998.81;6068766;28;96488;-62
2023/06/25 09:17:55;;;;;;;;;12.50;11.50;;;;;30.67;55.00;99005.22;6067947;28;96420;-62
2023/06/25 09:21:03;;;;;;;;;11.00;10.00;;;;;31.12;52.90;98998.59;6068006;28;96271;-62
2023/06/25 09:24:15;;;;;;;;;11.00;10.00;;;;;31.48;47.80;99006.75;6075381;28;96978;-62
2023/06/25 09:27:20;;;;;;;;;12.25;11.00;;;;;31.95;50.34;98997.66;6094008;28;96269;-62
2023/06/25 09:30:24;;;;;;;;;11.00;10.20;;;;;31.95;43.25;98997.66;6094119;28;96413;-62
2023/06/25 09:33:35;;;;;;;;;13.60;12.60;;;;;31.79;44.98;98997.66;6076460;28;97679;-62
2023/06/25 09:36:40;;;;;;;;;12.40;11.00;;;;;31.81;47.87;98998.91;6093726;28;97006;-62
2023/06/25 09:39:44;;;;;;;;;14.00;11.00;;;;;31.90;47.23;98990.38;6093298;28;96312;-62
2023/06/25 09:42:53;;;;;;;;;12.00;10.40;;;;;31.85;46.38;98992.63;6093528;28;96604;-62
2023/06/25 09:45:57;;;;;;;;;13.00;12.00;;;;;31.77;45.38;98984.06;6075466;28;96678;-62
2023/06/25 09:49:02;;;;;;;;;14.40;12.40;;;;;31.68;45.29;98980.66;6074833;28;97153;-62
2023/06/25 09:52:09;;;;;;;;;11.00;10.00;;;;;31.54;46.72;98982.22;6068678;28;96702;-62
2023/06/25 09:55:16;;;;;;;;;12.60;11.60;;;;;31.45;48.56;98984.38;6051149;23;96484;-62
2023/06/25 09:58:21;;;;;;;;;15.40;13.40;;;;;31.29;49.42;98990.72;6044755;28;96816;-62
2023/06/25 10:01:25;;;;;;;;;16.00;15.00;;;;;30.95;50.57;98985.75;6045883;28;96355;-62
2023/06/25 10:04:30;;;;;;;;;13.00;12.20;;;;;30.27;48.33;98977.31;6045786;28;97027;-62
2023/06/25 10:07:35;;;;;;;;;13.00;12.00;;;;;30.13;51.45;98979.66;6059450;28;98475;-62
2023/06/25 10:10:38;;;;;;;;;12.00;11.00;;;;;29.90;51.41;98986.84;6045376;28;96389;-62
2023/06/25 10:13:44;;;;;;;;;12.00;11.00;;;;;29.73;52.88;98978.66;6043384;28;98343;-62
2023/06/25 10:16:53;;;;;;;;;13.00;13.00;;;;;29.65;52.99;98980.41;6044684;28;96790;-62
2023/06/25 10:20:01;;;;;;;;;12.00;11.00;;;;;29.54;54.73;98976.44;6060064;28;96751;-61
2023/06/25 10:23:10;;;;;;;;;12.50;12.00;;;;;29.43;54.30;98964.97;6045633;28;96372;-61
2023/06/25 10:26:14;;;;;;;;;16.00;14.20;;;;;29.48;57.21;98966.72;6046212;28;96416;-62
2023/06/25 10:29:17;;;;;;;;;15.60;14.00;;;;;29.56;54.92;98965.81;6045276;28;96360;-62
2023/06/25 10:32:21;;;;;;;;;13.20;11.60;;;;;30.09;57.11;98973.97;6044960;28;96458;-62
2023/06/25 10:35:25;;;;;;;;;11.20;11.00;;;;;30.64;51.11;98966.16;6045388;28;96378;-62
2023/06/25 10:38:29;;;;;;;;;13.00;13.00;;;;;30.79;49.76;98962.63;6045574;28;96345;-62
2023/06/25 10:41:33;;;;;;;;;11.25;10.25;;;;;31.10;46.68;98964.72;6045393;28;96908;-62
2023/06/25 10:44:36;;;;;;;;;13.00;12.00;;;;;31.04;45.92;98957.78;6044233;28;96644;-62
2023/06/25 10:47:40;;;;;;;;;12.00;12.00;;;;;31.00;44.33;98952.09;6044241;28;96790;-62
2023/06/25 10:50:43;;;;;;;;;13.25;12.00;;;;;30.81;44.16;98960.28;6045079;28;97065;-62
2023/06/25 10:53:49;;;;;;;;;12.00;11.40;;;;;30.53;44.67;98954.69;6060696;23;96764;-61
2023/06/25 10:56:54;;;;;;;;;11.75;11.75;;;;;30.54;44.66;98947.97;6068957;28;96417;-62
2023/06/25 10:59:58;;;;;;;;;12.25;12.00;;;;;30.55;46.00;98942.03;6068771;28;96980;-62
2023/06/25 11:03:01;;;;;;;;;11.00;10.50;;;;;30.67;46.27;98943.97;6066799;28;96543;-61
2023/06/25 11:06:04;;;;;;;;;12.00;11.40;;;;;31.18;45.28;98949.84;6048346;28;97227;-62
2023/06/25 11:09:09;;;;;;;;;15.40;14.40;;;;;31.25;42.55;98933.28;6067449;28;97007;-62
2023/06/25 11:12:13;;;;;;;;;11.00;10.00;;;;;31.61;40.79;98944.25;6063886;28;97536;-62
2023/06/25 11:15:17;;;;;;;;;8.40;8.40;;;;;31.98;40.08;98939.16;6048576;28;96690;-62
2023/06/25 11:18:22;;;;;;;;;13.20;12.00;;;;;32.03;40.14;98924.94;6049202;28;99478;-62
2023/06/25 11:21:26;;;;;;;;;14.20;13.20;;;;;32.03;39.42;98936.09;6068038;28;96484;-62
2023/06/25 11:24:34;;;;;;;;;12.00;12.00;;;;;32.02;39.13;98934.47;6082639;23;96334;-61
2023/06/25 11:27:38;;;;;;;;;14.60;14.00;;;;;32.04;40.75;98936.91;6058547;28;97028;-62
2023/06/25 11:30:43;;;;;;;;;11.00;10.00;;;;;32.09;37.81;98933.84;6090111;28;96747;-62
2023/06/25 11:33:54;;;;;;;;;9.00;8.40;;;;;32.06;38.18;98934.59;6063195;28;96587;-62
2023/06/25 11:37:09;;;;;;;;;9.40;9.00;;;;;32.03;38.18;98924.94;6083846;28;96512;-62
2023/06/25 11:40:25;;;;;;;;;13.00;12.40;;;;;31.94;38.70;98926.31;6073663;28;96865;-62
2023/06/25 11:43:29;;;;;;;;;12.00;11.00;;;;;31.85;37.86;98925.72;6075136;28;96497;-62
2023/06/25 11:46:32;;;;;;;;;12.00;11.00;;;;;31.75;36.97;98913.13;6078270;28;96895;-62
2023/06/25 11:49:36;;;;;;;;;11.60;11.00;;;;;31.54;37.67;98918.13;6079730;28;96363;-62
2023/06/25 11:52:40;;;;;;;;;10.00;10.00;;;;;31.42;39.46;98921.81;6068124;28;96350;-62
2023/06/25 11:55:44;;;;;;;;;13.00;13.00;;;;;31.21;38.99;98913.72;6055381;28;96407;-62
2023/06/25 11:58:48;;;;;;;;;9.80;9.80;;;;;31.18;40.89;98908.06;6060316;28;96795;-62
2023/06/25 12:01:52;;;;;;;;;11.00;10.00;;;;;31.43;40.88;98898.34;6067302;28;96888;-62
2023/06/25 12:04:55;;;;;;;;;12.00;11.00;;;;;31.91;39.56;98896.38;6067770;28;96426;-62
2023/06/25 12:07:58;;;;;;;;;10.40;10.00;;;;;32.36;36.61;98888.25;6049815;28;97674;-62
2023/06/25 12:11:03;;;;;;;;;11.00;10.00;;;;;32.58;34.96;98889.53;6067270;28;96423;-62
2023/06/25 12:14:07;;;;;;;;;10.00;10.00;;;;;32.65;35.32;98886.91;6034197;28;97080;-62
2023/06/25 12:17:11;;;;;;;;;12.00;11.40;;;;;32.70;35.81;98872.63;6050022;28;98572;-62
2023/06/25 12:20:14;;;;;;;;;11.00;10.00;;;;;32.79;36.95;98878.84;6050284;28;96694;-62
2023/06/25 12:23:18;;;;;;;;;12.00;12.00;;;;;32.58;34.61;98878.34;6033244;28;98646;-62
2023/06/25 12:26:23;;;;;;;;;12.40;12.40;;;;;32.52;35.08;98877.03;6042020;28;97022;-62
2023/06/25 12:29:27;;;;;;;;;11.80;11.80;;;;;32.40;34.08;98871.63;6043012;28;96552;-62
2023/06/25 12:32:30;;;;;;;;;12.00;11.00;;;;;32.21;34.67;98875.97;6043326;28;96499;-62
2023/06/25 12:35:33;;;;;;;;;12.00;12.00;;;;;32.00;34.73;98872.69;6043447;28;96539;-62
2023/06/25 12:38:37;;;;;;;;;8.20;8.00;;;;;32.12;35.74;98864.22;6043289;28;96576;-62
2023/06/25 12:41:42;;;;;;;;;17.20;16.20;;;;;31.93;34.79;98864.16;6043122;28;96302;-62
2023/06/25 12:44:46;;;;;;;;;9.40;9.00;;;;;31.76;35.52;98862.59;6045066;28;96314;-62
2023/06/25 12:47:49;;;;;;;;;12.50;11.00;;;;;31.82;36.71;98858.34;6045912;28;96414;-62
2023/06/25 12:50:52;;;;;;;;;11.00;10.00;;;;;32.02;35.59;98863.94;6046510;28;96428;-62
2023/06/25 12:53:56;;;;;;;;;11.60;11.00;;;;;32.05;35.33;98863.25;6070302;23;96389;-61
2023/06/25 12:57:01;;;;;;;;;9.00;9.00;;;;;32.06;35.89;98854.50;6095589;28;97434;-62
2023/06/25 13:00:05;;;;;;;;;11.25;10.25;;;;;31.95;36.13;98847.88;6095672;28;96424;-62
2023/06/25 13:03:09;;;;;;;;;11.00;11.00;;;;;32.07;37.78;98850.53;6095062;28;96950;-62
2023/06/25 13:06:14;;;;;;;;;20.00;16.40;;;;;32.12;35.42;98849.47;6094081;28;96524;-62
2023/06/25 13:09:17;;;;;;;;;9.60;9.40;;;;;32.45;34.96;98855.34;6091592;28;96879;-62
2023/06/25 13:12:22;;;;;;;;;11.00;10.00;;;;;32.78;34.87;98854.88;6058487;28;98506;-62
2023/06/25 13:15:25;;;;;;;;;10.60;10.00;;;;;32.99;32.36;98843.28;6074814;28;96408;-62
2023/06/25 13:18:29;;;;;;;;;9.00;9.00;;;;;33.17;33.01;98830.47;6074381;28;96681;-62
2023/06/25 13:21:32;;;;;;;;;7.00;7.00;;;;;33.48;34.65;98844.16;6074137;28;96924;-62
2023/06/25 13:24:36;;;;;;;;;8.00;8.00;;;;;33.72;30.87;98826.19;6081405;23;97520;-61
2023/06/25 13:27:41;;;;;;;;;10.00;8.00;;;;;33.85;31.19;98812.81;6068870;28;96624;-62
2023/06/25 13:30:46;;;;;;;;;8.00;7.00;;;;;33.73;30.07;98824.22;6050826;28;96643;-62
2023/06/25 13:33:49;;;;;;;;;7.00;6.40;;;;;33.65;31.64;98820.47;6066661;28;96909;-62
2023/06/25 13:36:52;;;;;;;;;8.00;8.00;;;;;33.67;31.20;98820.94;6069151;28;96553;-62
2023/06/25 13:39:56;;;;;;;;;9.50;9.00;;;;;33.44;31.22;98820.13;6068839;28;96564;-62
2023/06/25 13:43:01;;;;;;;;;9.00;8.00;;;;;33.08;29.98;98815.94;6038074;28;96936;-62
2023/06/25 13:46:05;;;;;;;;;11.00;10.00;;;;;32.82;31.83;98813.84;6071254;28;97132;-62
2023/06/25 13:49:08;;;;;;;;;9.60;9.00;;;;;32.83;32.75;98809.09;6069559;28;96643;-62
2023/06/25 13:52:12;;;;;;;;;10.00;9.00;;;;;32.71;31.76;98821.22;6070404;28;96380;-62
2023/06/25 13:55:15;;;;;;;;;8.60;7.60;;;;;32.62;32.53;98807.47;6069304;28;96247;-62
2023/06/25 13:58:20;;;;;;;;;9.00;8.20;;;;;32.70;32.88;98816.00;6036780;28;96674;-62
2023/06/25 14:01:24;;;;;;;;;9.00;8.60;;;;;32.59;32.11;98810.19;6053603;28;96883;-62
2023/06/25 14:04:27;;;;;;;;;10.00;8.25;;;;;32.45;31.70;98807.91;6070268;28;96285;-62